Time;durP1;ratioP1;P1;durP2;ratioP2;P2;SDS_P1;SDS_P2;PMS_P1;PMS_P2;Temp;Humidity;BMP_temperature;BMP_pressure;BME280_temperature;BME280_humidity;BME280_pressure;Samples;Min_cycle;Max_cycle;Signal;HPM_P1;HPM_P2
2022/06/29 00:00:13;;;;;;;0.32;0.30;;;18.70;63.40;;;;;;6335426;22;19898;-72
2022/06/29 00:02:39;;;;;;;0.40;0.30;;;18.60;63.40;;;;;;6334920;22;20017;-73
2022/06/29 00:05:06;;;;;;;0.30;0.30;;;18.60;63.40;;;;;;6334707;22;20003;-72
2022/06/29 00:07:33;;;;;;;0.20;0.20;;;18.50;63.50;;;;;;6335620;22;20007;-73
2022/06/29 00:09:59;;;;;;;0.30;0.30;;;18.50;64.20;;;;;;6308571;22;20090;-72
2022/06/29 00:12:25;;;;;;;0.40;0.40;;;18.50;63.60;;;;;;6308690;22;20058;-72
2022/06/29 00:14:51;;;;;;;0.28;0.28;;;18.50;63.60;;;;;;6335889;22;20006;-73
2022/06/29 00:17:17;;;;;;;0.30;0.30;;;18.40;63.60;;;;;;6336750;22;19999;-72
2022/06/29 00:19:43;;;;;;;0.70;0.40;;;18.40;63.70;;;;;;6336105;22;20014;-72
2022/06/29 00:22:09;;;;;;;0.20;0.20;;;18.40;63.70;;;;;;6282157;22;20006;-72
2022/06/29 00:24:35;;;;;;;0.20;0.20;;;18.40;63.80;;;;;;6336187;22;20300;-73
2022/06/29 00:27:02;;;;;;;0.25;0.22;;;18.50;63.90;;;;;;6307704;22;20045;-72
2022/06/29 00:29:28;;;;;;;0.35;0.20;;;18.40;63.90;;;;;;6304646;22;20339;-72
2022/06/29 00:31:54;;;;;;;0.28;0.28;;;18.40;63.80;;;;;;6257230;22;19999;-72
2022/06/29 00:34:21;;;;;;;0.30;0.30;;;18.40;63.90;;;;;;6336290;22;19999;-72
2022/06/29 00:36:46;;;;;;;0.30;0.30;;;18.30;63.80;;;;;;6336504;22;19994;-72
2022/06/29 00:39:13;;;;;;;0.40;0.40;;;18.30;63.90;;;;;;6336114;22;20018;-72
2022/06/29 00:41:41;;;;;;;0.30;0.30;;;18.30;63.90;;;;;;6336273;22;20466;-72
2022/06/29 00:44:09;;;;;;;0.32;0.30;;;18.30;63.90;;;;;;6309285;22;20010;-72
2022/06/29 00:46:36;;;;;;;0.40;0.40;;;18.30;63.90;;;;;;6336894;22;20003;-72
2022/06/29 00:49:02;;;;;;;0.40;0.40;;;18.20;63.90;;;;;;6336499;22;20007;-72
2022/06/29 00:51:31;;;;;;;0.40;0.40;;;18.20;64.00;;;;;;6308561;22;20069;-72
2022/06/29 00:53:59;;;;;;;0.40;0.40;;;18.20;64.00;;;;;;6283652;22;20003;-72
2022/06/29 00:56:25;;;;;;;0.47;0.47;;;18.20;64.20;;;;;;6336317;22;20003;-72
2022/06/29 00:58:55;;;;;;;0.40;0.40;;;18.20;64.20;;;;;;6307553;22;20365;-72
2022/06/29 01:01:21;;;;;;;0.30;0.30;;;18.20;64.30;;;;;;6336115;22;19998;-72
2022/06/29 01:03:47;;;;;;;0.43;0.40;;;18.10;64.20;;;;;;6336104;22;20036;-72
2022/06/29 01:06:13;;;;;;;0.20;0.20;;;18.10;64.40;;;;;;6307658;22;20026;-72
2022/06/29 01:08:40;;;;;;;0.28;0.28;;;18.00;64.50;;;;;;6308193;22;20427;-71
2022/06/29 01:11:06;;;;;;;0.75;0.32;;;18.00;64.70;;;;;;6308023;22;20000;-72
2022/06/29 01:13:32;;;;;;;0.20;0.20;;;17.90;64.70;;;;;;6308680;22;20010;-72
2022/06/29 01:15:57;;;;;;;0.20;0.20;;;17.90;64.80;;;;;;6307277;22;20030;-71
2022/06/29 01:18:23;;;;;;;0.30;0.30;;;17.80;64.80;;;;;;6282453;22;20014;-72
2022/06/29 01:20:49;;;;;;;0.20;0.20;;;17.80;64.90;;;;;;6336018;22;20445;-72
2022/06/29 01:23:15;;;;;;;0.25;0.25;;;17.80;65.00;;;;;;6308287;22;20376;-72
2022/06/29 01:25:41;;;;;;;0.50;0.40;;;17.80;65.00;;;;;;6336666;22;20426;-72
2022/06/29 01:28:07;;;;;;;0.20;0.20;;;17.70;65.10;;;;;;6336442;22;20006;-72
2022/06/29 01:30:32;;;;;;;0.30;0.30;;;17.80;65.20;;;;;;6336091;22;19999;-73
2022/06/29 01:32:58;;;;;;;0.30;0.30;;;17.70;65.30;;;;;;6282509;22;19999;-72
2022/06/29 01:35:24;;;;;;;0.28;0.28;;;17.60;65.40;;;;;;6281602;22;20441;-72
2022/06/29 01:37:50;;;;;;;0.20;0.20;;;17.60;65.40;;;;;;6336368;22;19998;-73
2022/06/29 01:40:16;;;;;;;0.30;0.30;;;17.60;65.50;;;;;;6335676;22;20002;-72
2022/06/29 01:42:42;;;;;;;0.30;0.30;;;17.60;65.60;;;;;;6306851;22;20011;-71
2022/06/29 01:45:08;;;;;;;0.30;0.20;;;17.50;65.60;;;;;;6336527;22;20060;-72
2022/06/29 01:47:33;;;;;;;0.40;0.40;;;17.50;65.60;;;;;;6308179;22;20015;-72
2022/06/29 01:49:59;;;;;;;0.38;0.38;;;17.50;65.60;;;;;;6336176;22;20059;-72
2022/06/29 01:52:25;;;;;;;0.55;0.43;;;17.30;65.60;;;;;;6309425;22;20031;-72
2022/06/29 01:54:51;;;;;;;0.30;0.30;;;17.40;65.70;;;;;;6307633;22;20038;-72
2022/06/29 01:57:17;;;;;;;0.30;0.30;;;17.40;65.80;;;;;;6308422;22;20030;-72
2022/06/29 01:59:43;;;;;;;0.30;0.30;;;17.40;65.90;;;;;;6308349;22;20015;-72
2022/06/29 02:02:09;;;;;;;0.45;0.40;;;17.30;65.80;;;;;;6336189;22;20488;-72
2022/06/29 02:04:35;;;;;;;0.47;0.43;;;17.30;65.80;;;;;;6308518;22;20003;-72
2022/06/29 02:07:00;;;;;;;0.32;0.32;;;17.30;65.90;;;;;;6336649;22;20300;-72
2022/06/29 02:09:26;;;;;;;0.40;0.40;;;17.30;66.00;;;;;;6307548;22;20044;-72
2022/06/29 02:11:52;;;;;;;0.30;0.30;;;17.10;66.00;;;;;;6308108;22;20007;-71
2022/06/29 02:14:19;;;;;;;0.20;0.20;;;17.20;66.20;;;;;;6336278;22;20014;-72
2022/06/29 02:16:45;;;;;;;0.28;0.28;;;17.20;66.20;;;;;;6308197;22;20386;-71
2022/06/29 02:19:10;;;;;;;0.30;0.30;;;17.20;66.20;;;;;;6282428;22;20042;-72
2022/06/29 02:21:36;;;;;;;0.70;0.35;;;17.20;66.20;;;;;;6335522;22;20003;-72
2022/06/29 02:24:02;;;;;;;0.38;0.38;;;17.10;66.20;;;;;;6282724;22;19999;-71
2022/06/29 02:26:35;;;;;;;0.30;0.30;;;17.10;66.20;;;;;;6335347;22;20086;-72
2022/06/29 02:29:01;;;;;;;0.30;0.30;;;17.10;66.30;;;;;;6282256;22;20089;-73
2022/06/29 02:36:45;;;;;;;0.50;0.43;;;17.10;66.50;;;;;;6335846;22;20002;-72
2022/06/29 02:39:11;;;;;;;0.22;0.22;;;17.00;66.50;;;;;;6336293;22;20457;-72
2022/06/29 02:41:36;;;;;;;2.03;0.50;;;17.10;66.60;;;;;;6307456;22;20003;-72
2022/06/29 02:44:02;;;;;;;0.52;0.30;;;17.00;66.60;;;;;;6308196;22;20442;-72
2022/06/29 02:46:28;;;;;;;0.20;0.20;;;16.90;66.60;;;;;;6308017;22;20048;-73
2022/06/29 02:48:54;;;;;;;0.30;0.30;;;16.90;66.70;;;;;;6335998;22;20007;-72
2022/06/29 02:51:20;;;;;;;0.32;0.32;;;16.90;66.70;;;;;;6282534;22;20335;-72
2022/06/29 02:53:45;;;;;;;0.40;0.35;;;16.90;66.70;;;;;;6336002;22;20434;-72
2022/06/29 02:56:11;;;;;;;0.50;0.40;;;16.80;66.60;;;;;;6335507;22;20010;-72
2022/06/29 02:58:37;;;;;;;0.95;0.45;;;16.80;66.70;;;;;;6336029;22;20987;-72
2022/06/29 03:01:02;;;;;;;0.73;0.40;;;16.80;66.70;;;;;;6336231;22;20006;-72
2022/06/29 03:03:28;;;;;;;0.40;0.30;;;16.90;66.80;;;;;;6307324;22;19998;-72
2022/06/29 03:05:54;;;;;;;0.65;0.50;;;16.80;66.80;;;;;;6307940;22;20028;-73
2022/06/29 03:08:19;;;;;;;0.22;0.22;;;16.80;66.80;;;;;;6336141;22;20423;-73
2022/06/29 03:10:45;;;;;;;0.40;0.40;;;16.90;66.80;;;;;;6307765;22;20419;-72
2022/06/29 03:13:11;;;;;;;0.50;0.50;;;16.80;66.80;;;;;;6282088;22;19998;-72
2022/06/29 03:15:36;;;;;;;0.63;0.25;;;16.80;66.80;;;;;;6336007;22;20303;-73
2022/06/29 03:18:02;;;;;;;0.30;0.30;;;16.90;66.90;;;;;;6308494;22;19999;-72
2022/06/29 03:20:28;;;;;;;0.52;0.28;;;16.80;66.90;;;;;;6335582;22;20011;-72
2022/06/29 03:22:54;;;;;;;0.40;0.40;;;16.80;66.90;;;;;;6335364;22;20026;-72
2022/06/29 03:25:19;;;;;;;0.30;0.30;;;16.70;66.90;;;;;;6308011;22;20002;-72
2022/06/29 03:27:45;;;;;;;0.38;0.38;;;16.80;67.00;;;;;;6335404;22;19999;-72
2022/06/29 03:30:12;;;;;;;0.50;0.50;;;16.70;67.00;;;;;;6308485;22;20014;-72
2022/06/29 03:32:38;;;;;;;0.40;0.40;;;16.70;67.00;;;;;;6307977;22;20002;-72
2022/06/29 03:35:05;;;;;;;0.30;0.30;;;16.70;67.10;;;;;;6335457;22;20078;-72
2022/06/29 03:37:30;;;;;;;0.40;0.40;;;16.70;67.10;;;;;;6335804;22;20002;-73
2022/06/29 03:39:56;;;;;;;0.40;0.40;;;16.70;67.10;;;;;;6335370;22;20007;-73
2022/06/29 03:42:22;;;;;;;0.30;0.30;;;16.60;67.10;;;;;;6309111;22;20011;-72
2022/06/29 03:44:48;;;;;;;0.75;0.40;;;16.70;67.30;;;;;;6336757;22;19999;-72
2022/06/29 03:47:14;;;;;;;0.50;0.50;;;16.70;67.40;;;;;;6282704;22;20009;-72
2022/06/29 03:49:40;;;;;;;0.40;0.40;;;16.70;67.50;;;;;;6336279;22;20014;-72
2022/06/29 03:52:06;;;;;;;0.52;0.50;;;16.60;67.50;;;;;;6336508;22;20002;-72
2022/06/29 03:54:32;;;;;;;0.38;0.38;;;16.60;67.60;;;;;;6308743;22;20784;-71
2022/06/29 03:56:57;;;;;;;0.40;0.40;;;16.60;67.70;;;;;;6282621;22;20327;-72
2022/06/29 03:59:23;;;;;;;0.40;0.40;;;16.50;67.70;;;;;;6336389;22;20003;-71
2022/06/29 04:01:49;;;;;;;0.35;0.35;;;16.50;67.70;;;;;;6336906;22;20010;-72
2022/06/29 04:04:16;;;;;;;0.30;0.30;;;16.50;67.90;;;;;;6309893;22;19999;-71
2022/06/29 04:06:41;;;;;;;0.57;0.47;;;16.50;67.90;;;;;;6257899;22;20300;-71
2022/06/29 04:09:07;;;;;;;0.45;0.45;;;16.50;67.90;;;;;;6307506;22;20018;-72
2022/06/29 04:14:18;;;;;;;0.40;0.40;;;16.50;68.00;;;;;;6336706;22;20003;-72
2022/06/29 04:16:44;;;;;;;0.30;0.30;;;16.50;68.00;;;;;;6309448;22;19995;-72
2022/06/29 04:19:11;;;;;;;0.40;0.40;;;16.50;68.00;;;;;;6309261;22;20023;-71
2022/06/29 04:21:37;;;;;;;0.40;0.40;;;16.60;68.00;;;;;;6258056;22;20005;-71
2022/06/29 04:24:03;;;;;;;0.60;0.60;;;16.50;68.00;;;;;;6309824;22;20003;-72
2022/06/29 04:26:29;;;;;;;0.80;0.52;;;16.50;68.00;;;;;;6309873;22;20085;-72
2022/06/29 04:28:55;;;;;;;0.30;0.30;;;16.60;68.10;;;;;;6337200;22;20423;-72
2022/06/29 04:31:20;;;;;;;0.47;0.47;;;16.60;68.10;;;;;;6308880;22;20038;-72
2022/06/29 04:33:46;;;;;;;0.32;0.32;;;16.50;68.00;;;;;;6309203;22;20003;-72
2022/06/29 04:36:13;;;;;;;0.30;0.30;;;16.70;68.10;;;;;;6283602;22;20006;-71
2022/06/29 04:38:38;;;;;;;0.40;0.40;;;16.60;68.10;;;;;;6336897;22;20435;-72
2022/06/29 04:41:04;;;;;;;0.28;0.28;;;16.60;68.00;;;;;;6336624;22;20009;-72
2022/06/29 04:43:30;;;;;;;0.43;0.43;;;16.70;68.00;;;;;;6336587;22;20003;-72
2022/06/29 04:48:32;;;;;;;0.40;0.40;;;16.70;68.00;;;;;;6336357;22;20089;-71
2022/06/29 04:50:58;;;;;;;0.35;0.35;;;16.70;68.00;;;;;;6336617;22;20383;-71
2022/06/29 04:53:26;;;;;;;0.43;0.40;;;16.70;68.00;;;;;;6336867;22;20017;-73
2022/06/29 04:55:52;;;;;;;0.30;0.30;;;16.80;68.00;;;;;;6336608;22;20006;-73
2022/06/29 04:58:18;;;;;;;0.30;0.30;;;16.80;68.00;;;;;;6309442;22;20078;-72
2022/06/29 05:00:44;;;;;;;0.30;0.30;;;16.90;67.90;;;;;;6336622;22;20002;-72
2022/06/29 05:03:10;;;;;;;0.40;0.40;;;16.80;67.80;;;;;;6308453;22;20029;-72
2022/06/29 05:05:35;;;;;;;0.55;0.50;;;17.00;67.90;;;;;;6308716;22;19995;-72
2022/06/29 05:08:01;;;;;;;0.50;0.50;;;17.10;67.90;;;;;;6336695;22;20007;-72
2022/06/29 05:10:27;;;;;;;0.30;0.30;;;17.10;67.80;;;;;;6282983;22;20013;-71
2022/06/29 05:12:52;;;;;;;0.60;0.60;;;17.10;67.60;;;;;;6336355;22;20022;-71
2022/06/29 05:15:18;;;;;;;0.50;0.50;;;17.20;67.60;;;;;;6308659;22;19995;-72
2022/06/29 05:17:45;;;;;;;0.47;0.47;;;17.30;67.50;;;;;;6336393;22;20006;-72
2022/06/29 05:20:11;;;;;;;0.45;0.45;;;17.50;67.50;;;;;;6336340;22;20014;-72
2022/06/29 05:22:37;;;;;;;1.38;0.85;;;17.40;67.20;;;;;;6336675;22;20011;-74
2022/06/29 05:25:03;;;;;;;1.02;0.65;;;17.60;67.10;;;;;;6308779;22;20434;-73
2022/06/29 05:27:29;;;;;;;1.27;0.90;;;17.60;67.00;;;;;;6336521;22;20003;-72
2022/06/29 05:29:55;;;;;;;1.15;0.85;;;17.70;66.90;;;;;;6308219;22;20023;-72
2022/06/29 05:32:21;;;;;;;0.70;0.70;;;17.80;66.80;;;;;;6308887;22;19995;-73
2022/06/29 05:34:47;;;;;;;0.93;0.73;;;17.90;66.70;;;;;;6309005;22;19998;-73
2022/06/29 05:37:12;;;;;;;0.65;0.65;;;18.00;66.70;;;;;;6306827;22;19999;-71
2022/06/29 05:39:38;;;;;;;0.52;0.52;;;18.10;66.60;;;;;;6336190;22;20087;-73
2022/06/29 05:42:04;;;;;;;1.02;0.60;;;18.20;66.50;;;;;;6336569;22;20011;-73
2022/06/29 05:44:30;;;;;;;0.60;0.60;;;18.30;66.40;;;;;;6336160;22;20006;-73
2022/06/29 05:46:56;;;;;;;0.40;0.40;;;18.40;66.40;;;;;;6308962;22;19999;-73
2022/06/29 05:49:21;;;;;;;0.60;0.50;;;18.50;66.40;;;;;;6336229;22;20018;-73
2022/06/29 05:51:47;;;;;;;0.50;0.50;;;18.50;66.40;;;;;;6336418;22;20450;-73
2022/06/29 05:54:13;;;;;;;0.50;0.50;;;18.60;66.40;;;;;;6336367;22;20017;-72
2022/06/29 05:56:39;;;;;;;0.40;0.40;;;18.60;66.30;;;;;;6283045;22;19995;-73
2022/06/29 05:59:04;;;;;;;0.73;0.60;;;18.70;66.40;;;;;;6336162;22;20434;-73
2022/06/29 06:01:30;;;;;;;0.50;0.50;;;18.80;66.40;;;;;;6336938;22;20081;-72
2022/06/29 06:03:56;;;;;;;0.52;0.52;;;18.80;66.30;;;;;;6282624;22;20013;-73
2022/06/29 06:06:21;;;;;;;0.43;0.43;;;19.00;66.40;;;;;;6336923;22;20071;-72
2022/06/29 06:08:47;;;;;;;0.50;0.43;;;18.90;66.30;;;;;;6335792;22;20338;-73
2022/06/29 06:11:13;;;;;;;0.65;0.55;;;19.00;66.30;;;;;;6308445;22;19999;-72
2022/06/29 06:13:39;;;;;;;0.50;0.50;;;19.00;66.20;;;;;;6308648;22;20006;-73
2022/06/29 06:16:05;;;;;;;0.98;0.70;;;19.10;66.20;;;;;;6308561;22;20335;-73
2022/06/29 06:18:31;;;;;;;0.40;0.40;;;19.20;66.20;;;;;;6305967;22;20039;-73
2022/06/29 06:20:57;;;;;;;0.95;0.40;;;19.20;66.20;;;;;;6308664;22;20072;-73
2022/06/29 06:23:22;;;;;;;0.50;0.50;;;19.30;66.10;;;;;;6309475;22;20082;-73
2022/06/29 06:25:48;;;;;;;0.40;0.40;;;19.30;66.10;;;;;;6336061;22;20330;-73
2022/06/29 06:28:14;;;;;;;0.55;0.55;;;19.30;66.00;;;;;;6336679;22;20343;-73
2022/06/29 06:30:40;;;;;;;0.40;0.35;;;19.40;65.90;;;;;;6308481;22;20418;-74
2022/06/29 06:33:05;;;;;;;0.38;0.35;;;19.50;65.80;;;;;;6336359;22;20051;-73
2022/06/29 06:35:32;;;;;;;0.45;0.45;;;19.60;65.70;;;;;;6335927;22;20006;-73
2022/06/29 06:37:57;;;;;;;0.47;0.40;;;19.70;65.70;;;;;;6336285;22;20003;-73
2022/06/29 06:43:09;;;;;;;0.50;0.50;;;19.90;65.40;;;;;;6331948;22;20010;-73
2022/06/29 06:45:34;;;;;;;0.35;0.35;;;20.10;65.30;;;;;;6335829;22;20474;-73
2022/06/29 06:48:00;;;;;;;0.60;0.60;;;20.20;65.10;;;;;;6336064;22;20007;-73
2022/06/29 06:50:26;;;;;;;0.47;0.47;;;20.30;65.00;;;;;;6336151;22;20152;-73
2022/06/29 06:52:52;;;;;;;0.50;0.50;;;20.40;64.90;;;;;;6306422;22;19995;-73
2022/06/29 06:55:17;;;;;;;0.60;0.57;;;20.60;64.80;;;;;;6336119;22;19999;-73
2022/06/29 06:57:43;;;;;;;0.50;0.50;;;20.60;64.60;;;;;;6335190;22;20422;-73
2022/06/29 07:00:10;;;;;;;0.55;0.55;;;20.60;64.60;;;;;;6335922;22;20326;-73
2022/06/29 07:02:36;;;;;;;0.30;0.30;;;20.80;64.70;;;;;;6257266;22;20465;-73
2022/06/29 07:05:03;;;;;;;0.47;0.47;;;21.00;64.50;;;;;;6336154;22;20007;-73
2022/06/29 07:07:28;;;;;;;0.43;0.43;;;21.20;64.40;;;;;;6335850;22;20006;-73
2022/06/29 07:09:54;;;;;;;0.50;0.50;;;21.40;64.10;;;;;;6335992;22;20038;-73
2022/06/29 07:12:20;;;;;;;0.40;0.40;;;21.60;63.90;;;;;;6307597;22;20420;-73
2022/06/29 07:14:46;;;;;;;0.40;0.40;;;21.80;63.80;;;;;;6335929;22;20320;-73
2022/06/29 07:17:11;;;;;;;0.63;0.63;;;21.90;63.70;;;;;;6307828;22;19999;-73
2022/06/29 07:19:37;;;;;;;0.60;0.60;;;22.10;63.60;;;;;;6335323;22;20006;-73
2022/06/29 07:22:03;;;;;;;0.40;0.40;;;22.20;63.30;;;;;;6282046;22;20015;-73
2022/06/29 07:24:29;;;;;;;0.40;0.40;;;22.40;63.30;;;;;;6308814;22;20086;-73
2022/06/29 07:26:56;;;;;;;0.50;0.50;;;22.50;63.40;;;;;;6335683;22;20026;-73
2022/06/29 07:29:22;;;;;;;1.13;0.70;;;22.70;63.40;;;;;;6308510;22;20090;-73
2022/06/29 07:31:48;;;;;;;0.40;0.40;;;22.90;63.20;;;;;;6335013;22;20124;-73
2022/06/29 07:34:14;;;;;;;0.60;0.60;;;23.10;63.00;;;;;;6307908;22;20435;-73
2022/06/29 07:36:40;;;;;;;0.40;0.40;;;23.30;62.90;;;;;;6335915;22;20423;-70
2022/06/29 07:39:05;;;;;;;0.63;0.57;;;23.50;62.70;;;;;;6307432;22;20027;-70
2022/06/29 07:41:31;;;;;;;0.50;0.50;;;23.60;62.60;;;;;;6306760;22;20003;-70
2022/06/29 07:43:57;;;;;;;0.50;0.50;;;23.80;62.40;;;;;;6307781;22;20090;-70
2022/06/29 07:46:23;;;;;;;0.68;0.60;;;24.00;62.30;;;;;;6335776;22;20006;-70
2022/06/29 07:48:50;;;;;;;0.70;0.70;;;24.20;62.20;;;;;;6307850;22;20018;-70
2022/06/29 07:51:16;;;;;;;0.60;0.60;;;24.30;62.70;;;;;;6335345;22;20023;-70
2022/06/29 07:53:42;;;;;;;0.50;0.50;;;24.50;62.00;;;;;;6335163;22;19999;-72
2022/06/29 07:56:07;;;;;;;0.40;0.40;;;24.60;61.80;;;;;;6335384;22;20005;-72
2022/06/29 07:58:33;;;;;;;1.08;0.60;;;24.80;61.70;;;;;;6335470;22;20033;-72
2022/06/29 08:00:59;;;;;;;0.70;0.50;;;25.00;61.70;;;;;;6307292;22;20002;-72
2022/06/29 08:03:25;;;;;;;1.10;0.60;;;24.90;61.80;;;;;;6307765;22;20450;-72
2022/06/29 08:05:50;;;;;;;0.50;0.47;;;25.10;61.80;;;;;;6335652;22;20033;-72
2022/06/29 08:08:17;;;;;;;0.60;0.55;;;25.10;61.80;;;;;;6279463;22;20441;-72
2022/06/29 08:10:42;;;;;;;0.50;0.50;;;25.20;62.10;;;;;;6335205;22;20086;-73
2022/06/29 08:13:08;;;;;;;0.60;0.60;;;25.30;62.10;;;;;;6307267;22;20042;-72
2022/06/29 08:15:35;;;;;;;0.40;0.40;;;25.40;61.90;;;;;;6335742;22;20003;-72
2022/06/29 08:18:01;;;;;;;0.45;0.40;;;25.50;61.80;;;;;;6335056;22;20007;-72
2022/06/29 08:20:28;;;;;;;0.40;0.40;;;25.60;61.90;;;;;;6334970;22;20063;-72
2022/06/29 08:22:54;;;;;;;0.45;0.45;;;25.70;61.70;;;;;;6335033;22;20457;-72
2022/06/29 08:25:20;;;;;;;0.40;0.40;;;25.90;61.60;;;;;;6335042;22;20007;-72
2022/06/29 08:27:52;;;;;;;0.45;0.45;;;25.90;61.70;;;;;;6335086;22;19999;-72
2022/06/29 08:30:18;;;;;;;0.50;0.50;;;25.90;62.50;;;;;;6336366;22;20064;-72
2022/06/29 08:32:44;;;;;;;0.40;0.40;;;25.90;62.10;;;;;;6336734;22;20319;-72
2022/06/29 08:35:12;;;;;;;0.40;0.40;;;25.90;62.10;;;;;;6281501;22;20428;-73
2022/06/29 08:37:38;;;;;;;0.43;0.43;;;25.90;62.20;;;;;;6336708;22;20002;-73
2022/06/29 08:40:07;;;;;;;0.40;0.40;;;26.10;62.20;;;;;;6336042;22;20137;-73
2022/06/29 08:42:36;;;;;;;0.40;0.40;;;26.10;62.10;;;;;;6337100;22;20003;-73
2022/06/29 08:45:02;;;;;;;0.70;0.45;;;26.30;61.80;;;;;;6337282;22;20010;-72
2022/06/29 08:47:27;;;;;;;0.43;0.43;;;26.50;61.50;;;;;;6336879;22;20002;-72
2022/06/29 08:49:53;;;;;;;0.50;0.50;;;26.60;61.50;;;;;;6336704;22;20380;-72
2022/06/29 08:52:21;;;;;;;0.40;0.40;;;26.80;61.30;;;;;;6336279;22;19995;-73
2022/06/29 08:54:48;;;;;;;0.50;0.50;;;26.90;61.10;;;;;;6336462;22;20431;-72
2022/06/29 08:57:15;;;;;;;0.70;0.52;;;27.10;60.80;;;;;;6307983;22;20144;-72
2022/06/29 08:59:42;;;;;;;0.45;0.45;;;27.30;60.50;;;;;;6308671;22;20007;-71
2022/06/29 09:02:09;;;;;;;0.40;0.40;;;27.40;60.20;;;;;;6335946;22;20011;-72
2022/06/29 09:04:35;;;;;;;0.50;0.50;;;27.40;60.30;;;;;;6336582;22;20009;-72
2022/06/29 09:07:01;;;;;;;0.50;0.50;;;27.40;60.30;;;;;;6336574;22;20091;-72
2022/06/29 09:09:27;;;;;;;3.85;0.82;;;27.60;60.20;;;;;;6336556;22;20007;-72
2022/06/29 09:11:54;;;;;;;0.40;0.40;;;27.70;59.90;;;;;;6335959;22;20002;-73
2022/06/29 09:14:22;;;;;;;0.47;0.47;;;27.80;59.80;;;;;;6336767;22;19999;-73
2022/06/29 09:17:03;;;;;;;0.90;0.73;;;27.90;59.80;;;;;;6336525;22;19999;-73
2022/06/29 09:19:43;;;;;;;1.02;0.57;;;28.10;59.30;;;;;;6336696;22;20434;-73
2022/06/29 09:22:09;;;;;;;0.68;0.50;;;28.30;59.20;;;;;;6336366;22;20003;-73
2022/06/29 09:24:35;;;;;;;0.40;0.40;;;28.40;59.10;;;;;;6336315;22;20084;-73
2022/06/29 09:27:04;;;;;;;0.73;0.50;;;28.50;58.80;;;;;;6336631;22;20415;-73
2022/06/29 09:29:33;;;;;;;0.40;0.40;;;28.50;58.70;;;;;;6335597;22;20014;-73
2022/06/29 09:32:08;;;;;;;0.60;0.43;;;28.60;58.70;;;;;;6282345;22;20423;-73
2022/06/29 09:34:39;;;;;;;0.43;0.43;;;28.80;58.40;;;;;;6336170;22;20003;-73
2022/06/29 09:37:07;;;;;;;0.90;0.55;;;28.80;58.30;;;;;;6335951;22;20086;-73
2022/06/29 09:39:36;;;;;;;1.20;0.70;;;28.90;58.20;;;;;;6335546;22;19999;-73
2022/06/29 09:42:04;;;;;;;0.68;0.50;;;28.70;58.40;;;;;;6335743;22;20022;-73
2022/06/29 09:44:29;;;;;;;0.50;0.50;;;28.70;58.50;;;;;;6336811;22;20006;-73
2022/06/29 09:46:56;;;;;;;0.57;0.57;;;28.90;58.30;;;;;;6337064;22;19999;-73
2022/06/29 09:49:26;;;;;;;0.63;0.50;;;29.00;58.10;;;;;;6335226;22;20146;-73
2022/06/29 09:51:56;;;;;;;0.50;0.50;;;29.10;57.70;;;;;;6309368;22;20013;-73
2022/06/29 09:54:31;;;;;;;0.57;0.50;;;29.10;57.80;;;;;;6335910;22;20007;-74
2022/06/29 09:56:57;;;;;;;0.50;0.50;;;29.20;57.70;;;;;;6336273;22;19999;-73
2022/06/29 10:05:13;;;;;;;;;;;29.50;57.40;;;;;;6336580;22;20038;-73
2022/06/29 10:07:41;;;;;;;0.40;0.40;;;29.50;57.50;;;;;;6335791;22;19953;-73
2022/06/29 10:10:11;;;;;;;0.40;0.40;;;29.50;57.60;;;;;;6335945;22;20019;-73
2022/06/29 10:16:12;;;;;;;0.53;0.50;;;29.70;57.00;;;;;;6334310;22;20015;-73
2022/06/29 10:19:11;;;;;;;0.50;0.50;;;29.60;56.90;;;;;;6336427;22;20007;-73
2022/06/29 10:21:36;;;;;;;0.40;0.40;;;29.60;56.80;;;;;;6315390;22;19998;-73
2022/06/29 10:24:03;;;;;;;0.22;0.22;;;29.50;57.10;;;;;;6307884;22;20300;-73
2022/06/29 10:26:39;;;;;;;0.40;0.40;;;29.20;57.30;;;;;;6336121;22;20025;-73
2022/06/29 10:29:26;;;;;;;0.47;0.47;;;28.90;57.70;;;;;;6336323;22;20435;-73
2022/06/29 10:32:07;;;;;;;0.30;0.30;;;28.80;57.90;;;;;;6313708;22;20022;-73
2022/06/29 10:35:05;;;;;;;0.40;0.40;;;28.70;58.00;;;;;;6306700;22;20335;-73
2022/06/29 10:37:24;;;;;;;0.30;0.30;;;28.70;58.10;;;;;;6335672;22;20007;-74
2022/06/29 10:39:53;;;;;;;0.40;0.40;;;28.90;57.80;;;;;;6336547;22;20034;-73
2022/06/29 10:45:19;;;;;;;0.45;0.40;;;29.40;56.70;;;;;;6336181;22;20065;-73
2022/06/29 10:48:13;;;;;;;0.40;0.40;;;29.50;56.50;;;;;;6335965;22;20007;-73
2022/06/29 10:50:43;;;;;;;1.27;0.50;;;29.30;56.30;;;;;;6335222;22;20034;-74
2022/06/29 10:53:11;;;;;;;0.45;0.43;;;29.30;56.60;;;;;;6335983;22;20010;-74
2022/06/29 10:55:40;;;;;;;0.40;0.40;;;29.40;56.40;;;;;;6336182;22;20005;-74
2022/06/29 10:58:05;;;;;;;0.40;0.40;;;29.60;56.30;;;;;;6335926;22;20006;-73
2022/06/29 11:00:38;;;;;;;0.40;0.40;;;29.70;56.20;;;;;;6336076;22;20498;-74
2022/06/29 11:03:11;;;;;;;0.52;0.52;;;29.70;56.20;;;;;;6335870;22;20077;-74
2022/06/29 11:05:38;;;;;;;0.40;0.40;;;29.70;56.20;;;;;;6335678;22;20003;-73
2022/06/29 11:13:29;;;;;;;0.55;0.50;;;29.70;56.10;;;;;;6335794;22;20015;-75
2022/06/29 11:15:57;;;;;;;0.45;0.45;;;29.50;56.20;;;;;;6335544;22;19999;-74
2022/06/29 11:18:29;;;;;;;1.48;0.40;;;29.50;56.40;;;;;;6306183;22;20004;-74
2022/06/29 11:21:02;;;;;;;0.40;0.40;;;29.50;56.20;;;;;;6335760;22;20094;-74
2022/06/29 11:23:32;;;;;;;0.35;0.35;;;29.60;56.10;;;;;;6334427;22;20043;-74
2022/06/29 11:25:59;;;;;;;0.50;0.50;;;29.70;56.00;;;;;;6335786;22;19999;-74
2022/06/29 11:28:28;;;;;;;0.65;0.40;;;29.80;55.70;;;;;;6335500;22;20082;-73
2022/06/29 11:31:11;;;;;;;0.98;0.50;;;29.70;55.50;;;;;;6336133;22;20392;-73
2022/06/29 11:33:42;;;;;;;0.40;0.40;;;29.80;55.50;;;;;;6335485;22;19999;-73
2022/06/29 11:36:14;;;;;;;0.35;0.35;;;29.70;55.40;;;;;;6335532;22;20038;-73
2022/06/29 11:38:43;;;;;;;0.40;0.40;;;29.70;55.50;;;;;;6335484;22;19995;-74
2022/06/29 11:41:12;;;;;;;0.40;0.40;;;29.70;55.50;;;;;;6335580;22;20003;-74
2022/06/29 11:43:38;;;;;;;0.50;0.50;;;29.80;55.40;;;;;;6335515;22;19999;-73
2022/06/29 11:46:03;;;;;;;0.47;0.47;;;29.40;55.00;;;;;;6335901;22;19999;-74
2022/06/29 11:48:31;;;;;;;0.60;0.60;;;29.30;55.30;;;;;;6307417;22;20387;-74
2022/06/29 11:51:01;;;;;;;0.40;0.40;;;29.30;55.10;;;;;;6335622;22;19999;-74
2022/06/29 11:53:44;;;;;;;0.50;0.50;;;29.30;55.10;;;;;;6335834;22;20004;-74
2022/06/29 11:56:14;;;;;;;0.47;0.47;;;29.30;54.80;;;;;;6308169;22;20117;-73
2022/06/29 11:58:46;;;;;;;0.90;0.50;;;29.30;55.00;;;;;;6335598;22;19999;-74
2022/06/29 12:01:15;;;;;;;0.60;0.40;;;29.40;54.80;;;;;;6308539;22;20422;-74
2022/06/29 12:03:52;;;;;;;0.50;0.50;;;29.40;54.40;;;;;;6337096;22;20431;-74
2022/06/29 12:06:19;;;;;;;0.40;0.40;;;29.30;54.40;;;;;;6309138;22;19999;-74
2022/06/29 12:08:46;;;;;;;0.40;0.40;;;29.30;54.40;;;;;;6336666;22;20006;-73
2022/06/29 12:11:12;;;;;;;1.20;0.55;;;29.30;54.40;;;;;;6308827;22;20081;-74
2022/06/29 12:13:38;;;;;;;0.40;0.40;;;29.30;54.20;;;;;;6308769;22;20003;-74
2022/06/29 12:16:04;;;;;;;0.50;0.50;;;29.10;54.30;;;;;;6336415;22;20777;-74
2022/06/29 12:18:31;;;;;;;0.50;0.50;;;29.10;54.50;;;;;;6283066;22;19998;-74
2022/06/29 12:20:57;;;;;;;0.47;0.40;;;29.10;54.60;;;;;;6336452;22;20003;-74
2022/06/29 12:23:23;;;;;;;0.32;0.32;;;29.10;54.60;;;;;;6308859;22;20074;-73
2022/06/29 12:25:49;;;;;;;0.60;0.50;;;29.20;54.30;;;;;;6308987;22;19995;-73
2022/06/29 12:28:14;;;;;;;0.50;0.50;;;29.20;54.20;;;;;;6337268;22;20135;-74
2022/06/29 12:30:40;;;;;;;0.40;0.38;;;29.10;54.20;;;;;;6336349;22;20132;-74
2022/06/29 12:33:09;;;;;;;0.30;0.30;;;29.10;54.20;;;;;;6337083;22;20405;-74
2022/06/29 12:35:36;;;;;;;0.73;0.50;;;29.10;54.20;;;;;;6336674;22;20034;-73
2022/06/29 12:38:02;;;;;;;0.52;0.50;;;29.10;54.10;;;;;;6308524;22;20006;-73
2022/06/29 12:40:29;;;;;;;0.40;0.40;;;28.90;54.10;;;;;;6309014;22;20003;-73
2022/06/29 12:42:55;;;;;;;0.57;0.50;;;28.80;54.30;;;;;;6337212;22;20006;-73
2022/06/29 12:45:21;;;;;;;0.40;0.40;;;28.80;54.50;;;;;;6336897;22;20006;-73
2022/06/29 12:47:47;;;;;;;0.40;0.40;;;28.70;54.50;;;;;;6336469;22;20002;-73
2022/06/29 12:50:13;;;;;;;0.38;0.38;;;28.70;54.50;;;;;;6336841;22;20050;-73
2022/06/29 12:52:45;;;;;;;0.43;0.43;;;28.70;54.30;;;;;;6309163;22;20499;-73
2022/06/29 12:55:13;;;;;;;0.30;0.30;;;28.70;54.20;;;;;;6337113;22;20048;-74
2022/06/29 12:57:40;;;;;;;0.65;0.40;;;28.80;54.10;;;;;;6337145;22;20030;-74
2022/06/29 13:00:06;;;;;;;0.40;0.40;;;28.90;53.90;;;;;;6307462;22;20015;-73
2022/06/29 13:02:32;;;;;;;0.30;0.30;;;29.00;53.70;;;;;;6336413;22;20005;-73
2022/06/29 13:04:58;;;;;;;0.40;0.40;;;29.00;53.60;;;;;;6308581;22;20003;-73
2022/06/29 13:07:26;;;;;;;0.40;0.40;;;29.10;53.50;;;;;;6283433;22;20014;-74
2022/06/29 13:09:53;;;;;;;0.35;0.35;;;29.10;53.40;;;;;;6336482;22;20022;-73
2022/06/29 13:12:19;;;;;;;0.35;0.35;;;29.20;53.50;;;;;;6336794;22;20007;-73
2022/06/29 13:14:44;;;;;;;0.40;0.40;;;29.20;53.50;;;;;;6336166;22;19999;-73
2022/06/29 13:17:11;;;;;;;0.40;0.40;;;29.30;53.50;;;;;;6309060;22;20010;-73